sensor_id;sensor_type;location;lat;lon;timestamp;P1;durP1;ratioP1;P2;durP2;ratioP2
34900;SDS011;21112;51.976;5.660;2023-05-10T02:07:36;16.85;;;6.75;;
34900;SDS011;21112;51.976;5.660;2023-05-10T02:10:03;16.02;;;6.78;;
34900;SDS011;21112;51.976;5.660;2023-05-10T02:12:31;19.13;;;7.22;;
34900;SDS011;21112;51.976;5.660;2023-05-10T02:14:59;19.73;;;7.90;;
34900;SDS011;21112;51.976;5.660;2023-05-10T02:17:28;18.15;;;8.32;;
34900;SDS011;21112;51.976;5.660;2023-05-10T02:19:56;18.40;;;8.23;;
34900;SDS011;21112;51.976;5.660;2023-05-10T02:22:24;20.40;;;8.05;;
34900;SDS011;21112;51.976;5.660;2023-05-10T02:24:53;19.73;;;8.75;;
34900;SDS011;21112;51.976;5.660;2023-05-10T02:29:46;18.35;;;7.97;;
34900;SDS011;21112;51.976;5.660;2023-05-10T02:32:14;16.40;;;8.13;;
34900;SDS011;21112;51.976;5.660;2023-05-10T02:34:41;20.02;;;8.57;;
34900;SDS011;21112;51.976;5.660;2023-05-10T02:37:09;17.67;;;7.88;;
34900;SDS011;21112;51.976;5.660;2023-05-10T02:39:37;18.13;;;8.13;;
34900;SDS011;21112;51.976;5.660;2023-05-10T02:42:10;18.77;;;8.45;;
34900;SDS011;21112;51.976;5.660;2023-05-10T02:44:41;22.40;;;9.25;;
34900;SDS011;21112;51.976;5.660;2023-05-10T02:47:07;23.65;;;9.05;;
34900;SDS011;21112;51.976;5.660;2023-05-10T02:49:34;21.80;;;9.10;;
34900;SDS011;21112;51.976;5.660;2023-05-10T02:52:01;21.20;;;9.50;;
34900;SDS011;21112;51.976;5.660;2023-05-10T02:54:33;19.88;;;9.30;;
34900;SDS011;21112;51.976;5.660;2023-05-10T02:57:00;23.25;;;10.00;;
34900;SDS011;21112;51.976;5.660;2023-05-10T02:59:29;21.15;;;9.77;;
34900;SDS011;21112;51.976;5.660;2023-05-10T03:01:56;20.75;;;9.10;;
34900;SDS011;21112;51.976;5.660;2023-05-10T03:04:22;24.50;;;10.40;;
34900;SDS011;21112;51.976;5.660;2023-05-10T03:06:49;24.33;;;10.63;;
34900;SDS011;21112;51.976;5.660;2023-05-10T03:09:15;23.63;;;10.30;;
34900;SDS011;21112;51.976;5.660;2023-05-10T03:11:47;24.20;;;10.48;;
34900;SDS011;21112;51.976;5.660;2023-05-10T03:14:18;22.88;;;10.43;;
34900;SDS011;21112;51.976;5.660;2023-05-10T03:16:50;20.88;;;9.90;;
34900;SDS011;21112;51.976;5.660;2023-05-10T03:19:22;23.92;;;10.20;;
34900;SDS011;21112;51.976;5.660;2023-05-10T03:21:51;23.30;;;9.95;;
34900;SDS011;21112;51.976;5.660;2023-05-10T03:24:19;21.17;;;9.77;;
34900;SDS011;21112;51.976;5.660;2023-05-10T03:26:46;26.25;;;10.55;;
34900;SDS011;21112;51.976;5.660;2023-05-10T03:29:13;23.85;;;10.55;;
34900;SDS011;21112;51.976;5.660;2023-05-10T03:31:41;20.67;;;10.18;;
34900;SDS011;21112;51.976;5.660;2023-05-10T03:34:09;25.70;;;11.23;;
34900;SDS011;21112;51.976;5.660;2023-05-10T03:36:36;25.05;;;10.93;;
34900;SDS011;21112;51.976;5.660;2023-05-10T03:39:06;23.10;;;10.57;;
34900;SDS011;21112;51.976;5.660;2023-05-10T03:41:35;22.88;;;10.43;;
34900;SDS011;21112;51.976;5.660;2023-05-10T03:44:04;21.95;;;10.15;;
34900;SDS011;21112;51.976;5.660;2023-05-10T03:46:31;26.55;;;11.45;;
34900;SDS011;21112;51.976;5.660;2023-05-10T03:48:58;22.48;;;10.75;;
34900;SDS011;21112;51.976;5.660;2023-05-10T03:51:32;23.45;;;11.27;;
34900;SDS011;21112;51.976;5.660;2023-05-10T03:53:59;21.98;;;10.57;;
34900;SDS011;21112;51.976;5.660;2023-05-10T03:56:28;21.40;;;9.88;;
34900;SDS011;21112;51.976;5.660;2023-05-10T03:58:55;21.05;;;10.57;;
34900;SDS011;21112;51.976;5.660;2023-05-10T04:01:21;25.35;;;11.05;;
34900;SDS011;21112;51.976;5.660;2023-05-10T04:03:48;23.40;;;11.10;;
34900;SDS011;21112;51.976;5.660;2023-05-10T04:06:14;22.20;;;10.60;;
34900;SDS011;21112;51.976;5.660;2023-05-10T04:08:43;26.08;;;11.35;;
34900;SDS011;21112;51.976;5.660;2023-05-10T04:11:10;25.23;;;11.55;;
34900;SDS011;21112;51.976;5.660;2023-05-10T04:13:37;28.17;;;11.30;;
34900;SDS011;21112;51.976;5.660;2023-05-10T04:16:04;26.20;;;11.82;;
34900;SDS011;21112;51.976;5.660;2023-05-10T04:18:31;24.38;;;11.02;;
34900;SDS011;21112;51.976;5.660;2023-05-10T04:20:58;25.05;;;12.02;;
34900;SDS011;21112;51.976;5.660;2023-05-10T04:23:25;28.27;;;12.10;;
34900;SDS011;21112;51.976;5.660;2023-05-10T04:25:56;24.85;;;12.15;;
34900;SDS011;21112;51.976;5.660;2023-05-10T04:28:25;22.65;;;11.07;;
34900;SDS011;21112;51.976;5.660;2023-05-10T04:31:02;28.67;;;11.45;;
34900;SDS011;21112;51.976;5.660;2023-05-10T04:33:32;24.05;;;11.27;;
34900;SDS011;21112;51.976;5.660;2023-05-10T04:35:59;24.70;;;11.75;;
34900;SDS011;21112;51.976;5.660;2023-05-10T04:38:29;25.30;;;11.18;;
34900;SDS011;21112;51.976;5.660;2023-05-10T04:41:10;24.42;;;11.40;;
34900;SDS011;21112;51.976;5.660;2023-05-10T04:43:37;26.35;;;11.63;;
34900;SDS011;21112;51.976;5.660;2023-05-10T04:46:06;25.02;;;10.45;;
34900;SDS011;21112;51.976;5.660;2023-05-10T04:59:37;26.92;;;11.00;;
34900;SDS011;21112;51.976;5.660;2023-05-10T05:02:04;22.33;;;11.00;;
34900;SDS011;21112;51.976;5.660;2023-05-10T05:04:36;22.73;;;10.90;;
34900;SDS011;21112;51.976;5.660;2023-05-10T05:07:03;25.05;;;11.52;;
34900;SDS011;21112;51.976;5.660;2023-05-10T05:09:30;27.70;;;11.98;;
34900;SDS011;21112;51.976;5.660;2023-05-10T05:11:57;21.33;;;10.23;;
34900;SDS011;21112;51.976;5.660;2023-05-10T05:14:26;26.05;;;10.95;;
34900;SDS011;21112;51.976;5.660;2023-05-10T05:16:59;22.40;;;10.77;;
34900;SDS011;21112;51.976;5.660;2023-05-10T05:19:31;23.70;;;12.00;;
34900;SDS011;21112;51.976;5.660;2023-05-10T05:21:59;24.77;;;10.70;;
34900;SDS011;21112;51.976;5.660;2023-05-10T05:24:32;27.08;;;11.20;;
34900;SDS011;21112;51.976;5.660;2023-05-10T05:27:01;24.20;;;10.43;;
34900;SDS011;21112;51.976;5.660;2023-05-10T05:29:39;23.30;;;10.32;;
34900;SDS011;21112;51.976;5.660;2023-05-10T05:32:17;24.80;;;11.02;;
34900;SDS011;21112;51.976;5.660;2023-05-10T05:34:49;23.42;;;10.07;;
34900;SDS011;21112;51.976;5.660;2023-05-10T05:37:16;22.02;;;10.95;;
34900;SDS011;21112;51.976;5.660;2023-05-10T05:42:26;23.80;;;10.98;;
34900;SDS011;21112;51.976;5.660;2023-05-10T05:44:53;25.15;;;10.57;;
34900;SDS011;21112;51.976;5.660;2023-05-10T05:47:29;23.15;;;10.48;;
34900;SDS011;21112;51.976;5.660;2023-05-10T05:50:01;27.05;;;11.63;;
34900;SDS011;21112;51.976;5.660;2023-05-10T05:52:30;21.02;;;9.48;;
34900;SDS011;21112;51.976;5.660;2023-05-10T05:54:56;28.23;;;11.23;;
34900;SDS011;21112;51.976;5.660;2023-05-10T05:57:34;23.30;;;10.40;;
34900;SDS011;21112;51.976;5.660;2023-05-10T06:00:02;25.73;;;10.98;;
34900;SDS011;21112;51.976;5.660;2023-05-10T06:02:38;21.40;;;11.25;;
34900;SDS011;21112;51.976;5.660;2023-05-10T06:05:14;25.25;;;10.75;;
34900;SDS011;21112;51.976;5.660;2023-05-10T06:07:42;24.85;;;11.15;;
34900;SDS011;21112;51.976;5.660;2023-05-10T06:10:17;27.35;;;11.27;;
34900;SDS011;21112;51.976;5.660;2023-05-10T06:12:47;26.73;;;12.20;;
34900;SDS011;21112;51.976;5.660;2023-05-10T06:17:51;24.48;;;9.77;;
34900;SDS011;21112;51.976;5.660;2023-05-10T06:20:21;27.48;;;10.30;;
34900;SDS011;21112;51.976;5.660;2023-05-10T06:22:50;26.40;;;11.73;;
34900;SDS011;21112;51.976;5.660;2023-05-10T06:25:19;24.88;;;10.93;;
34900;SDS011;21112;51.976;5.660;2023-05-10T06:27:49;23.52;;;11.30;;
34900;SDS011;21112;51.976;5.660;2023-05-10T06:30:22;26.58;;;12.00;;
34900;SDS011;21112;51.976;5.660;2023-05-10T06:32:54;27.70;;;11.77;;
34900;SDS011;21112;51.976;5.660;2023-05-10T06:37:49;24.75;;;10.15;;
34900;SDS011;21112;51.976;5.660;2023-05-10T06:40:20;27.85;;;12.23;;
34900;SDS011;21112;51.976;5.660;2023-05-10T06:42:53;31.15;;;12.57;;
34900;SDS011;21112;51.976;5.660;2023-05-10T06:45:22;26.38;;;12.80;;
34900;SDS011;21112;51.976;5.660;2023-05-10T06:53:04;28.23;;;12.63;;
34900;SDS011;21112;51.976;5.660;2023-05-10T06:55:34;28.58;;;13.18;;
34900;SDS011;21112;51.976;5.660;2023-05-10T06:58:05;29.45;;;13.27;;
34900;SDS011;21112;51.976;5.660;2023-05-10T07:00:34;31.25;;;13.70;;
34900;SDS011;21112;51.976;5.660;2023-05-10T07:03:11;31.70;;;13.57;;
34900;SDS011;21112;51.976;5.660;2023-05-10T07:05:45;32.10;;;12.95;;
34900;SDS011;21112;51.976;5.660;2023-05-10T07:08:13;28.27;;;12.90;;
34900;SDS011;21112;51.976;5.660;2023-05-10T07:10:42;31.20;;;12.57;;
34900;SDS011;21112;51.976;5.660;2023-05-10T07:13:11;30.85;;;13.05;;
34900;SDS011;21112;51.976;5.660;2023-05-10T07:15:58;31.90;;;13.27;;
34900;SDS011;21112;51.976;5.660;2023-05-10T07:18:35;32.15;;;13.07;;
34900;SDS011;21112;51.976;5.660;2023-05-10T07:34:20;34.38;;;14.50;;
34900;SDS011;21112;51.976;5.660;2023-05-10T07:36:47;32.40;;;13.80;;
34900;SDS011;21112;51.976;5.660;2023-05-10T07:39:17;33.28;;;13.70;;
34900;SDS011;21112;51.976;5.660;2023-05-10T07:41:52;27.90;;;12.63;;
34900;SDS011;21112;51.976;5.660;2023-05-10T07:44:19;37.25;;;14.38;;
34900;SDS011;21112;51.976;5.660;2023-05-10T07:46:45;31.98;;;13.75;;
34900;SDS011;21112;51.976;5.660;2023-05-10T07:49:12;33.75;;;14.48;;
34900;SDS011;21112;51.976;5.660;2023-05-10T07:51:42;30.58;;;13.80;;
34900;SDS011;21112;51.976;5.660;2023-05-10T07:54:09;31.27;;;12.73;;
34900;SDS011;21112;51.976;5.660;2023-05-10T07:56:42;38.47;;;14.30;;
34900;SDS011;21112;51.976;5.660;2023-05-10T07:59:15;33.40;;;13.48;;
34900;SDS011;21112;51.976;5.660;2023-05-10T08:01:47;31.35;;;13.02;;
34900;SDS011;21112;51.976;5.660;2023-05-10T08:04:17;34.05;;;12.93;;
34900;SDS011;21112;51.976;5.660;2023-05-10T08:06:53;29.80;;;12.98;;
34900;SDS011;21112;51.976;5.660;2023-05-10T08:09:20;28.77;;;13.13;;
34900;SDS011;21112;51.976;5.660;2023-05-10T08:11:50;31.92;;;12.77;;
34900;SDS011;21112;51.976;5.660;2023-05-10T08:14:27;29.10;;;12.88;;
34900;SDS011;21112;51.976;5.660;2023-05-10T08:16:54;27.88;;;11.95;;
34900;SDS011;21112;51.976;5.660;2023-05-10T08:19:21;26.98;;;12.55;;
34900;SDS011;21112;51.976;5.660;2023-05-10T08:21:49;26.48;;;10.55;;
34900;SDS011;21112;51.976;5.660;2023-05-10T08:24:18;32.50;;;12.32;;
34900;SDS011;21112;51.976;5.660;2023-05-10T08:26:45;25.20;;;10.68;;
34900;SDS011;21112;51.976;5.660;2023-05-10T08:29:15;24.67;;;10.88;;
34900;SDS011;21112;51.976;5.660;2023-05-10T08:31:45;24.90;;;11.02;;
34900;SDS011;21112;51.976;5.660;2023-05-10T08:34:14;23.27;;;11.38;;
34900;SDS011;21112;51.976;5.660;2023-05-10T08:36:52;21.73;;;10.03;;
34900;SDS011;21112;51.976;5.660;2023-05-10T08:39:24;21.63;;;9.15;;
34900;SDS011;21112;51.976;5.660;2023-05-10T08:41:51;21.60;;;9.68;;
34900;SDS011;21112;51.976;5.660;2023-05-10T08:44:27;23.55;;;9.32;;
34900;SDS011;21112;51.976;5.660;2023-05-10T08:46:54;20.80;;;9.13;;
34900;SDS011;21112;51.976;5.660;2023-05-10T08:49:23;18.27;;;8.55;;
34900;SDS011;21112;51.976;5.660;2023-05-10T08:54:20;21.13;;;8.80;;
34900;SDS011;21112;51.976;5.660;2023-05-10T08:56:51;21.17;;;9.32;;
34900;SDS011;21112;51.976;5.660;2023-05-10T08:59:24;21.50;;;9.40;;
34900;SDS011;21112;51.976;5.660;2023-05-10T09:04:44;20.48;;;8.45;;
34900;SDS011;21112;51.976;5.660;2023-05-10T09:07:14;19.40;;;7.93;;
34900;SDS011;21112;51.976;5.660;2023-05-10T09:09:44;18.85;;;7.97;;
34900;SDS011;21112;51.976;5.660;2023-05-10T09:12:15;15.05;;;6.88;;
34900;SDS011;21112;51.976;5.660;2023-05-10T09:14:44;16.15;;;7.45;;
34900;SDS011;21112;51.976;5.660;2023-05-10T09:17:11;18.95;;;8.00;;
34900;SDS011;21112;51.976;5.660;2023-05-10T09:19:41;17.17;;;7.43;;
34900;SDS011;21112;51.976;5.660;2023-05-10T09:22:14;14.00;;;6.85;;
34900;SDS011;21112;51.976;5.660;2023-05-10T09:24:46;15.30;;;7.28;;
34900;SDS011;21112;51.976;5.660;2023-05-10T09:27:15;16.13;;;7.35;;
34900;SDS011;21112;51.976;5.660;2023-05-10T09:29:48;15.63;;;7.40;;
34900;SDS011;21112;51.976;5.660;2023-05-10T09:32:21;15.30;;;6.65;;
34900;SDS011;21112;51.976;5.660;2023-05-10T09:34:47;20.50;;;7.55;;
34900;SDS011;21112;51.976;5.660;2023-05-10T09:37:16;14.90;;;6.53;;
34900;SDS011;21112;51.976;5.660;2023-05-10T09:39:45;15.85;;;7.03;;
34900;SDS011;21112;51.976;5.660;2023-05-10T09:42:17;18.98;;;7.10;;
34900;SDS011;21112;51.976;5.660;2023-05-10T09:44:44;14.32;;;6.53;;
34900;SDS011;21112;51.976;5.660;2023-05-10T09:47:21;14.30;;;6.30;;
34900;SDS011;21112;51.976;5.660;2023-05-10T09:49:49;15.82;;;7.03;;
34900;SDS011;21112;51.976;5.660;2023-05-10T09:52:21;14.07;;;6.28;;
34900;SDS011;21112;51.976;5.660;2023-05-10T09:54:52;14.60;;;6.45;;
34900;SDS011;21112;51.976;5.660;2023-05-10T09:57:27;13.63;;;5.93;;
34900;SDS011;21112;51.976;5.660;2023-05-10T09:59:59;14.55;;;6.65;;
34900;SDS011;21112;51.976;5.660;2023-05-10T10:02:28;12.85;;;5.80;;
34900;SDS011;21112;51.976;5.660;2023-05-10T10:04:55;13.70;;;6.03;;
34900;SDS011;21112;51.976;5.660;2023-05-10T10:07:37;14.25;;;5.80;;
34900;SDS011;21112;51.976;5.660;2023-05-10T10:10:08;14.32;;;5.97;;
34900;SDS011;21112;51.976;5.660;2023-05-10T10:12:39;11.07;;;5.20;;
34900;SDS011;21112;51.976;5.660;2023-05-10T10:15:09;13.48;;;5.75;;
34900;SDS011;21112;51.976;5.660;2023-05-10T10:17:36;13.07;;;5.60;;
34900;SDS011;21112;51.976;5.660;2023-05-10T10:20:04;13.73;;;5.50;;
34900;SDS011;21112;51.976;5.660;2023-05-10T10:22:32;17.67;;;5.82;;
34900;SDS011;21112;51.976;5.660;2023-05-10T10:25:03;13.30;;;6.00;;
34900;SDS011;21112;51.976;5.660;2023-05-10T10:27:42;11.45;;;5.70;;
34900;SDS011;21112;51.976;5.660;2023-05-10T10:30:21;13.18;;;5.80;;
34900;SDS011;21112;51.976;5.660;2023-05-10T10:32:55;14.95;;;5.85;;
34900;SDS011;21112;51.976;5.660;2023-05-10T10:35:30;11.55;;;5.28;;
34900;SDS011;21112;51.976;5.660;2023-05-10T10:37:58;12.63;;;5.40;;
34900;SDS011;21112;51.976;5.660;2023-05-10T10:40:28;11.75;;;4.88;;
34900;SDS011;21112;51.976;5.660;2023-05-10T10:42:57;13.23;;;5.70;;
34900;SDS011;21112;51.976;5.660;2023-05-10T10:45:31;11.98;;;5.20;;
34900;SDS011;21112;51.976;5.660;2023-05-10T10:50:45;13.18;;;5.32;;
34900;SDS011;21112;51.976;5.660;2023-05-10T10:53:12;13.82;;;5.35;;
34900;SDS011;21112;51.976;5.660;2023-05-10T10:55:45;12.48;;;4.85;;
34900;SDS011;21112;51.976;5.660;2023-05-10T11:01:10;10.80;;;5.22;;
34900;SDS011;21112;51.976;5.660;2023-05-10T11:03:37;12.80;;;5.13;;
34900;SDS011;21112;51.976;5.660;2023-05-10T11:06:05;12.67;;;4.83;;
34900;SDS011;21112;51.976;5.660;2023-05-10T11:08:41;10.48;;;4.93;;
34900;SDS011;21112;51.976;5.660;2023-05-10T11:11:14;11.27;;;5.20;;
34900;SDS011;21112;51.976;5.660;2023-05-10T11:13:50;12.43;;;5.30;;
34900;SDS011;21112;51.976;5.660;2023-05-10T11:16:19;10.45;;;4.60;;
34900;SDS011;21112;51.976;5.660;2023-05-10T11:18:52;14.02;;;4.63;;
34900;SDS011;21112;51.976;5.660;2023-05-10T11:21:23;11.05;;;4.70;;
34900;SDS011;21112;51.976;5.660;2023-05-10T11:23:53;10.75;;;4.82;;
34900;SDS011;21112;51.976;5.660;2023-05-10T11:26:21;13.15;;;5.00;;
34900;SDS011;21112;51.976;5.660;2023-05-10T11:28:51;11.50;;;5.15;;
34900;SDS011;21112;51.976;5.660;2023-05-10T11:31:19;10.10;;;4.77;;
34900;SDS011;21112;51.976;5.660;2023-05-10T11:33:47;12.05;;;5.22;;
34900;SDS011;21112;51.976;5.660;2023-05-10T11:36:14;10.32;;;4.43;;
34900;SDS011;21112;51.976;5.660;2023-05-10T11:38:43;10.45;;;4.80;;
34900;SDS011;21112;51.976;5.660;2023-05-10T11:41:20;10.02;;;4.70;;
34900;SDS011;21112;51.976;5.660;2023-05-10T11:43:51;11.32;;;4.93;;
34900;SDS011;21112;51.976;5.660;2023-05-10T11:46:22;10.52;;;5.03;;
34900;SDS011;21112;51.976;5.660;2023-05-10T11:48:51;12.48;;;5.05;;
34900;SDS011;21112;51.976;5.660;2023-05-10T11:51:34;9.80;;;4.53;;
34900;SDS011;21112;51.976;5.660;2023-05-10T11:54:05;11.48;;;5.05;;
34900;SDS011;21112;51.976;5.660;2023-05-10T11:56:32;11.82;;;4.82;;
34900;SDS011;21112;51.976;5.660;2023-05-10T11:59:03;11.60;;;4.78;;
34900;SDS011;21112;51.976;5.660;2023-05-10T12:01:34;9.90;;;4.70;;
34900;SDS011;21112;51.976;5.660;2023-05-10T12:04:12;10.05;;;4.82;;
34900;SDS011;21112;51.976;5.660;2023-05-10T12:06:39;11.23;;;4.80;;
34900;SDS011;21112;51.976;5.660;2023-05-10T12:09:09;8.80;;;4.22;;
34900;SDS011;21112;51.976;5.660;2023-05-10T12:11:39;8.95;;;4.43;;
34900;SDS011;21112;51.976;5.660;2023-05-10T12:14:21;9.63;;;4.55;;
34900;SDS011;21112;51.976;5.660;2023-05-10T12:16:50;12.52;;;4.60;;
34900;SDS011;21112;51.976;5.660;2023-05-10T12:19:18;10.10;;;4.43;;
34900;SDS011;21112;51.976;5.660;2023-05-10T12:21:49;9.52;;;4.15;;
34900;SDS011;21112;51.976;5.660;2023-05-10T12:24:18;9.23;;;3.92;;
34900;SDS011;21112;51.976;5.660;2023-05-10T12:26:53;8.48;;;3.97;;
34900;SDS011;21112;51.976;5.660;2023-05-10T12:29:20;9.38;;;4.32;;
34900;SDS011;21112;51.976;5.660;2023-05-10T12:31:53;10.17;;;4.17;;
34900;SDS011;21112;51.976;5.660;2023-05-10T12:34:26;9.55;;;3.88;;
34900;SDS011;21112;51.976;5.660;2023-05-10T12:36:53;10.57;;;3.83;;
34900;SDS011;21112;51.976;5.660;2023-05-10T12:39:19;9.38;;;4.18;;
34900;SDS011;21112;51.976;5.660;2023-05-10T12:41:46;7.85;;;3.83;;
34900;SDS011;21112;51.976;5.660;2023-05-10T12:44:12;9.18;;;3.97;;
34900;SDS011;21112;51.976;5.660;2023-05-10T12:46:39;8.27;;;3.72;;
34900;SDS011;21112;51.976;5.660;2023-05-10T12:49:07;8.55;;;3.70;;
34900;SDS011;21112;51.976;5.660;2023-05-10T12:51:34;8.48;;;4.35;;
34900;SDS011;21112;51.976;5.660;2023-05-10T12:54:00;8.48;;;4.22;;
34900;SDS011;21112;51.976;5.660;2023-05-10T12:56:27;8.85;;;3.88;;
34900;SDS011;21112;51.976;5.660;2023-05-10T12:58:53;9.57;;;4.05;;
34900;SDS011;21112;51.976;5.660;2023-05-10T13:01:20;9.00;;;4.63;;
34900;SDS011;21112;51.976;5.660;2023-05-10T13:03:52;8.00;;;3.97;;
34900;SDS011;21112;51.976;5.660;2023-05-10T13:06:32;8.85;;;4.05;;
34900;SDS011;21112;51.976;5.660;2023-05-10T13:09:00;8.27;;;3.90;;
34900;SDS011;21112;51.976;5.660;2023-05-10T13:11:27;8.65;;;3.90;;
34900;SDS011;21112;51.976;5.660;2023-05-10T13:13:56;9.10;;;3.80;;
34900;SDS011;21112;51.976;5.660;2023-05-10T13:16:23;7.95;;;3.88;;
34900;SDS011;21112;51.976;5.660;2023-05-10T13:19:09;9.48;;;4.35;;
34900;SDS011;21112;51.976;5.660;2023-05-10T13:21:40;7.28;;;3.83;;
34900;SDS011;21112;51.976;5.660;2023-05-10T13:36:40;8.23;;;4.13;;
34900;SDS011;21112;51.976;5.660;2023-05-10T13:39:10;8.70;;;4.15;;
34900;SDS011;21112;51.976;5.660;2023-05-10T13:41:48;10.27;;;4.72;;
34900;SDS011;21112;51.976;5.660;2023-05-10T13:44:23;7.60;;;3.85;;
34900;SDS011;21112;51.976;5.660;2023-05-10T13:46:55;8.65;;;4.22;;
34900;SDS011;21112;51.976;5.660;2023-05-10T13:49:35;11.20;;;4.38;;
34900;SDS011;21112;51.976;5.660;2023-05-10T13:52:04;7.97;;;4.40;;
34900;SDS011;21112;51.976;5.660;2023-05-10T13:57:16;8.52;;;4.10;;
34900;SDS011;21112;51.976;5.660;2023-05-10T13:59:43;8.02;;;4.05;;
34900;SDS011;21112;51.976;5.660;2023-05-10T14:02:13;9.35;;;3.95;;
34900;SDS011;21112;51.976;5.660;2023-05-10T14:04:41;9.35;;;4.28;;
34900;SDS011;21112;51.976;5.660;2023-05-10T14:07:13;7.75;;;4.20;;
34900;SDS011;21112;51.976;5.660;2023-05-10T14:09:40;7.93;;;4.18;;
34900;SDS011;21112;51.976;5.660;2023-05-10T14:12:07;8.25;;;4.50;;
34900;SDS011;21112;51.976;5.660;2023-05-10T14:14:38;10.02;;;4.22;;
34900;SDS011;21112;51.976;5.660;2023-05-10T14:17:05;7.47;;;3.90;;
34900;SDS011;21112;51.976;5.660;2023-05-10T14:19:34;7.72;;;4.10;;
34900;SDS011;21112;51.976;5.660;2023-05-10T14:22:06;7.20;;;3.95;;
34900;SDS011;21112;51.976;5.660;2023-05-10T14:24:33;9.23;;;3.88;;
34900;SDS011;21112;51.976;5.660;2023-05-10T14:27:00;6.93;;;3.60;;
34900;SDS011;21112;51.976;5.660;2023-05-10T14:29:32;8.43;;;3.70;;
34900;SDS011;21112;51.976;5.660;2023-05-10T14:32:03;8.45;;;4.10;;
34900;SDS011;21112;51.976;5.660;2023-05-10T14:34:31;8.63;;;3.55;;
34900;SDS011;21112;51.976;5.660;2023-05-10T14:36:58;7.40;;;3.72;;
34900;SDS011;21112;51.976;5.660;2023-05-10T14:39:29;8.07;;;3.65;;
34900;SDS011;21112;51.976;5.660;2023-05-10T14:41:56;10.95;;;3.58;;
34900;SDS011;21112;51.976;5.660;2023-05-10T14:44:25;6.88;;;3.70;;
34900;SDS011;21112;51.976;5.660;2023-05-10T14:46:52;6.80;;;3.30;;
34900;SDS011;21112;51.976;5.660;2023-05-10T14:49:21;7.00;;;3.60;;
34900;SDS011;21112;51.976;5.660;2023-05-10T14:51:52;7.40;;;3.20;;
34900;SDS011;21112;51.976;5.660;2023-05-10T14:54:25;6.95;;;3.50;;
34900;SDS011;21112;51.976;5.660;2023-05-10T14:57:26;8.30;;;3.65;;
34900;SDS011;21112;51.976;5.660;2023-05-10T14:59:45;6.32;;;3.22;;
34900;SDS011;21112;51.976;5.660;2023-05-10T15:02:13;7.05;;;3.22;;
34900;SDS011;21112;51.976;5.660;2023-05-10T15:04:45;6.60;;;2.97;;
34900;SDS011;21112;51.976;5.660;2023-05-10T15:07:12;7.93;;;3.50;;
34900;SDS011;21112;51.976;5.660;2023-05-10T15:09:40;7.20;;;3.03;;
34900;SDS011;21112;51.976;5.660;2023-05-10T15:12:12;6.40;;;3.08;;
34900;SDS011;21112;51.976;5.660;2023-05-10T15:24:27;6.97;;;3.10;;
34900;SDS011;21112;51.976;5.660;2023-05-10T15:26:53;6.20;;;3.25;;
34900;SDS011;21112;51.976;5.660;2023-05-10T15:29:31;7.13;;;3.17;;
34900;SDS011;21112;51.976;5.660;2023-05-10T15:32:01;6.63;;;3.05;;
34900;SDS011;21112;51.976;5.660;2023-05-10T15:34:30;7.65;;;3.20;;
34900;SDS011;21112;51.976;5.660;2023-05-10T15:37:03;8.95;;;3.30;;
34900;SDS011;21112;51.976;5.660;2023-05-10T15:39:32;7.10;;;3.22;;
34900;SDS011;21112;51.976;5.660;2023-05-10T15:42:01;7.53;;;3.13;;
34900;SDS011;21112;51.976;5.660;2023-05-10T15:44:29;6.03;;;2.73;;
34900;SDS011;21112;51.976;5.660;2023-05-10T15:46:58;6.20;;;2.90;;
34900;SDS011;21112;51.976;5.660;2023-05-10T15:49:25;6.10;;;3.00;;
34900;SDS011;21112;51.976;5.660;2023-05-10T15:51:52;6.85;;;3.20;;
34900;SDS011;21112;51.976;5.660;2023-05-10T16:01:41;6.80;;;3.20;;
34900;SDS011;21112;51.976;5.660;2023-05-10T16:04:14;7.18;;;2.90;;
34900;SDS011;21112;51.976;5.660;2023-05-10T16:06:44;5.50;;;2.60;;
34900;SDS011;21112;51.976;5.660;2023-05-10T16:09:14;7.13;;;2.80;;
34900;SDS011;21112;51.976;5.660;2023-05-10T16:14:42;5.18;;;2.28;;
34900;SDS011;21112;51.976;5.660;2023-05-10T16:17:13;6.45;;;2.90;;
34900;SDS011;21112;51.976;5.660;2023-05-10T16:19:46;7.82;;;2.83;;
34900;SDS011;21112;51.976;5.660;2023-05-10T16:22:15;8.18;;;3.75;;
34900;SDS011;21112;51.976;5.660;2023-05-10T16:32:00;7.22;;;2.83;;
34900;SDS011;21112;51.976;5.660;2023-05-10T16:39:42;7.38;;;3.05;;
34900;SDS011;21112;51.976;5.660;2023-05-10T16:42:15;7.57;;;3.28;;
34900;SDS011;21112;51.976;5.660;2023-05-10T16:44:45;7.45;;;3.30;;
34900;SDS011;21112;51.976;5.660;2023-05-10T16:47:22;5.90;;;3.03;;
34900;SDS011;21112;51.976;5.660;2023-05-10T16:49:53;7.82;;;3.30;;
34900;SDS011;21112;51.976;5.660;2023-05-10T16:52:47;7.00;;;2.95;;
34900;SDS011;21112;51.976;5.660;2023-05-10T16:55:23;8.77;;;3.35;;
34900;SDS011;21112;51.976;5.660;2023-05-10T16:57:49;6.20;;;3.00;;
34900;SDS011;21112;51.976;5.660;2023-05-10T17:00:18;7.10;;;3.00;;
34900;SDS011;21112;51.976;5.660;2023-05-10T17:05:11;6.40;;;2.78;;
34900;SDS011;21112;51.976;5.660;2023-05-10T17:07:37;5.95;;;3.00;;
34900;SDS011;21112;51.976;5.660;2023-05-10T17:10:04;6.50;;;3.20;;
34900;SDS011;21112;51.976;5.660;2023-05-10T17:12:34;12.90;;;3.65;;
34900;SDS011;21112;51.976;5.660;2023-05-10T17:15:04;8.02;;;3.13;;
34900;SDS011;21112;51.976;5.660;2023-05-10T17:17:31;7.15;;;3.17;;
34900;SDS011;21112;51.976;5.660;2023-05-10T17:19:58;6.85;;;2.95;;
34900;SDS011;21112;51.976;5.660;2023-05-10T17:22:24;8.18;;;3.40;;
34900;SDS011;21112;51.976;5.660;2023-05-10T17:24:54;8.27;;;3.50;;
34900;SDS011;21112;51.976;5.660;2023-05-10T17:27:48;9.27;;;3.42;;
34900;SDS011;21112;51.976;5.660;2023-05-10T17:30:17;9.20;;;2.92;;
34900;SDS011;21112;51.976;5.660;2023-05-10T17:32:50;7.45;;;3.00;;
34900;SDS011;21112;51.976;5.660;2023-05-10T17:35:18;10.18;;;3.92;;
34900;SDS011;21112;51.976;5.660;2023-05-10T17:37:45;7.85;;;3.30;;
34900;SDS011;21112;51.976;5.660;2023-05-10T17:40:11;8.38;;;3.90;;
34900;SDS011;21112;51.976;5.660;2023-05-10T17:42:43;8.77;;;3.65;;
34900;SDS011;21112;51.976;5.660;2023-05-10T17:45:14;8.30;;;3.33;;
34900;SDS011;21112;51.976;5.660;2023-05-10T17:47:43;10.95;;;3.80;;
34900;SDS011;21112;51.976;5.660;2023-05-10T17:50:10;8.27;;;3.50;;
34900;SDS011;21112;51.976;5.660;2023-05-10T17:52:37;7.75;;;3.58;;
34900;SDS011;21112;51.976;5.660;2023-05-10T17:55:09;8.10;;;3.47;;
34900;SDS011;21112;51.976;5.660;2023-05-10T17:57:37;9.65;;;3.22;;
34900;SDS011;21112;51.976;5.660;2023-05-10T18:00:06;8.43;;;3.00;;
34900;SDS011;21112;51.976;5.660;2023-05-10T18:02:36;8.52;;;3.30;;
34900;SDS011;21112;51.976;5.660;2023-05-10T18:05:03;8.25;;;3.22;;
34900;SDS011;21112;51.976;5.660;2023-05-10T18:07:37;7.15;;;3.33;;
34900;SDS011;21112;51.976;5.660;2023-05-10T18:10:05;6.30;;;2.70;;
34900;SDS011;21112;51.976;5.660;2023-05-10T18:12:37;9.68;;;3.75;;
34900;SDS011;21112;51.976;5.660;2023-05-10T18:15:05;8.48;;;3.42;;
34900;SDS011;21112;51.976;5.660;2023-05-10T18:22:37;7.68;;;3.33;;
34900;SDS011;21112;51.976;5.660;2023-05-10T18:25:12;9.55;;;3.60;;
34900;SDS011;21112;51.976;5.660;2023-05-10T18:27:40;7.05;;;3.67;;
34900;SDS011;21112;51.976;5.660;2023-05-10T18:30:09;6.88;;;3.22;;
34900;SDS011;21112;51.976;5.660;2023-05-10T18:32:38;7.13;;;3.53;;
34900;SDS011;21112;51.976;5.660;2023-05-10T18:35:12;8.57;;;3.22;;
34900;SDS011;21112;51.976;5.660;2023-05-10T18:37:46;8.50;;;3.30;;
34900;SDS011;21112;51.976;5.660;2023-05-10T18:40:13;6.35;;;3.20;;
34900;SDS011;21112;51.976;5.660;2023-05-10T18:42:44;8.30;;;3.17;;
34900;SDS011;21112;51.976;5.660;2023-05-10T18:45:16;7.03;;;2.88;;